createdAt,value
2023-02-23T00:01:45.590Z,22.70
2023-02-23T00:04:18.082Z,22.70
2023-02-23T00:06:49.493Z,22.70
2023-02-23T00:09:27.238Z,22.70
2023-02-23T00:12:01.133Z,22.70
2023-02-23T00:14:32.392Z,22.70
2023-02-23T00:17:23.739Z,22.70
2023-02-23T00:20:23.764Z,22.70
2023-02-23T00:22:44.766Z,22.70
2023-02-23T00:25:18.008Z,22.70
2023-02-23T00:27:56.975Z,22.80
2023-02-23T00:30:29.493Z,22.80
2023-02-23T00:33:00.755Z,22.80
2023-02-23T00:35:31.619Z,22.80
2023-02-23T00:38:02.507Z,22.80
2023-02-23T00:40:37.834Z,22.90
2023-02-23T00:43:08.869Z,22.90
2023-02-23T00:45:40.130Z,23.00
2023-02-23T00:48:11.934Z,22.90
2023-02-23T00:50:42.923Z,23.00
2023-02-23T00:53:14.144Z,23.00
2023-02-23T00:55:45.277Z,23.00
2023-02-23T00:58:18.190Z,23.00
2023-02-23T01:00:49.731Z,23.10
2023-02-23T01:03:20.800Z,23.10
2023-02-23T01:05:51.977Z,23.10
2023-02-23T01:12:06.432Z,23.10
2023-02-23T01:14:39.095Z,23.20
2023-02-23T01:17:10.410Z,23.30
2023-02-23T01:22:19.873Z,23.40
2023-02-23T01:24:51.287Z,23.40
2023-02-23T01:27:22.725Z,23.40
2023-02-23T01:29:53.770Z,23.40
2023-02-23T01:32:30.645Z,23.50
2023-02-23T01:35:04.701Z,23.50
2023-02-23T01:37:37.360Z,23.50
2023-02-23T01:40:16.484Z,23.60
2023-02-23T01:42:49.598Z,23.60
2023-02-23T01:45:30.212Z,23.70
2023-02-23T01:48:05.161Z,23.70
2023-02-23T01:50:50.560Z,23.80
2023-02-23T01:53:25.890Z,23.80
2023-02-23T01:56:03.367Z,23.90
2023-02-23T01:58:38.286Z,24.00
2023-02-23T02:01:10.971Z,24.00
2023-02-23T02:03:44.826Z,24.00
2023-02-23T02:06:18.017Z,24.10
2023-02-23T02:08:55.975Z,24.10
2023-02-23T02:11:35.372Z,24.20
2023-02-23T02:14:15.635Z,24.20
2023-02-23T02:17:19.445Z,24.20
2023-02-23T02:20:21.108Z,24.20
2023-02-23T02:23:16.391Z,24.30
2023-02-23T02:25:56.363Z,24.30
2023-02-23T02:28:42.777Z,24.40
2023-02-23T02:34:58.155Z,24.40
2023-02-23T02:37:43.727Z,24.50
2023-02-23T02:40:23.573Z,24.60
2023-02-23T02:46:31.911Z,24.80
2023-02-23T02:49:10.045Z,24.80
2023-02-23T02:51:46.398Z,24.90
2023-02-23T02:54:35.019Z,24.90
2023-02-23T02:57:08.149Z,25.00
2023-02-23T03:03:26.331Z,25.10
2023-02-23T03:06:15.949Z,25.20
2023-02-23T03:09:16.910Z,25.30
2023-02-23T03:12:14.048Z,25.30
2023-02-23T03:15:19.455Z,25.40
2023-02-23T03:18:10.408Z,25.60
2023-02-23T03:24:15.768Z,25.80
2023-02-23T03:27:09.608Z,25.90
2023-02-23T03:30:12.937Z,26.00
2023-02-23T03:33:09.792Z,26.20
2023-02-23T03:36:18.464Z,26.30
2023-02-23T03:39:12.030Z,26.40
2023-02-23T03:42:02.650Z,26.50
2023-02-23T03:44:53.586Z,26.60
2023-02-23T03:47:45.223Z,26.70
2023-02-23T03:50:42.779Z,26.80
2023-02-23T03:53:34.295Z,26.90
2023-02-23T03:56:26.510Z,27.00
2023-02-23T03:59:17.991Z,27.10
2023-02-23T04:02:09.531Z,27.30
2023-02-23T04:05:00.196Z,27.30
2023-02-23T04:07:50.057Z,27.40
2023-02-23T04:10:39.435Z,27.50
2023-02-23T04:13:18.175Z,27.60
2023-02-23T04:18:28.846Z,27.80
2023-02-23T04:21:01.025Z,27.90
2023-02-23T04:23:31.938Z,28.00
2023-02-23T04:26:03.428Z,28.10
2023-02-23T04:28:34.868Z,28.20
2023-02-23T04:31:06.214Z,28.40
2023-02-23T04:33:38.856Z,28.40
2023-02-23T04:36:10.740Z,28.50
2023-02-23T04:38:42.140Z,28.60
2023-02-23T04:41:13.754Z,28.70
2023-02-23T04:43:45.253Z,28.80
2023-02-23T04:46:18.691Z,28.80
2023-02-23T04:48:51.064Z,28.90
2023-02-23T04:51:22.361Z,29.00
2023-02-23T04:53:53.606Z,29.00
2023-02-23T04:56:27.235Z,29.10
2023-02-23T04:58:57.338Z,29.20
2023-02-23T05:01:33.139Z,29.30
2023-02-23T05:04:04.943Z,29.30
2023-02-23T05:06:44.745Z,29.30
2023-02-23T05:09:17.219Z,29.40
2023-02-23T05:11:48.491Z,29.40
2023-02-23T05:14:20.639Z,29.40
2023-02-23T05:16:52.417Z,29.50
2023-02-23T05:19:23.963Z,29.60
2023-02-23T05:21:57.949Z,29.60
2023-02-23T05:24:35.173Z,29.80
2023-02-23T05:27:06.533Z,29.90
2023-02-23T05:29:38.497Z,30.00
2023-02-23T05:32:09.738Z,30.00
2023-02-23T05:34:41.069Z,30.00
2023-02-23T05:37:11.918Z,30.00
2023-02-23T05:39:43.522Z,30.10
2023-02-23T05:42:18.500Z,30.20
2023-02-23T05:44:49.375Z,30.20
2023-02-23T05:47:20.562Z,30.30
2023-02-23T05:49:53.674Z,30.40
2023-02-23T05:52:25.695Z,30.50
2023-02-23T05:54:56.917Z,30.50
2023-02-23T06:03:27.624Z,30.60
2023-02-23T06:06:00.315Z,30.60
2023-02-23T06:08:31.448Z,30.70
2023-02-23T06:11:02.410Z,30.70
2023-02-23T06:13:33.839Z,30.70
2023-02-23T06:16:05.116Z,30.80
2023-02-23T06:18:35.927Z,30.80
2023-02-23T06:21:07.169Z,30.80
2023-02-23T06:23:38.943Z,30.90
2023-02-23T06:26:10.114Z,30.90
2023-02-23T06:28:41.078Z,30.90
2023-02-23T06:31:13.544Z,30.90
2023-02-23T06:33:44.660Z,30.90
2023-02-23T06:36:15.472Z,31.00
2023-02-23T06:38:48.446Z,30.90
2023-02-23T06:41:20.299Z,30.90
2023-02-23T06:43:55.877Z,30.90
2023-02-23T06:46:26.949Z,30.90
2023-02-23T06:49:01.129Z,30.90
2023-02-23T06:51:32.065Z,30.90
2023-02-23T06:54:03.154Z,30.90
2023-02-23T06:56:34.141Z,30.90
2023-02-23T06:59:08.583Z,30.90
2023-02-23T07:01:39.635Z,30.90
2023-02-23T07:04:10.617Z,31.00
2023-02-23T07:06:42.007Z,31.00
2023-02-23T07:09:13.065Z,31.00
2023-02-23T07:11:46.273Z,30.90
2023-02-23T07:14:26.116Z,31.00
2023-02-23T07:16:50.614Z,31.00
2023-02-23T07:19:21.938Z,31.00
2023-02-23T07:21:57.063Z,31.00
2023-02-23T07:24:28.972Z,31.00
2023-02-23T07:27:00.586Z,31.00
2023-02-23T07:29:31.801Z,31.00
2023-02-23T07:32:03.553Z,31.00
2023-02-23T07:34:34.742Z,30.90
2023-02-23T07:37:06.274Z,30.90
2023-02-23T07:39:41.829Z,30.90
2023-02-23T07:42:12.850Z,30.90
2023-02-23T07:44:47.905Z,30.90
2023-02-23T07:47:19.080Z,30.90
2023-02-23T07:49:50.193Z,30.90
2023-02-23T07:52:21.532Z,30.90
2023-02-23T07:54:54.178Z,30.80
2023-02-23T07:57:25.350Z,30.80
2023-02-23T07:59:56.561Z,30.80
2023-02-23T08:02:33.901Z,30.80
2023-02-23T08:05:05.002Z,30.80
2023-02-23T08:07:37.119Z,30.80
2023-02-23T08:10:08.785Z,30.70
2023-02-23T08:12:40.307Z,30.70
2023-02-23T08:15:12.401Z,30.70
2023-02-23T08:17:44.792Z,30.70
2023-02-23T08:20:15.995Z,30.70
2023-02-23T08:22:56.907Z,30.70
2023-02-23T08:25:29.854Z,30.70
2023-02-23T08:28:04.361Z,30.80
2023-02-23T08:30:35.246Z,30.70
2023-02-23T08:33:07.025Z,30.70
2023-02-23T08:35:41.237Z,30.70
2023-02-23T08:38:13.619Z,30.70
2023-02-23T08:40:45.183Z,30.70
2023-02-23T08:43:16.403Z,30.70
2023-02-23T08:45:47.348Z,30.70
2023-02-23T08:48:21.215Z,30.70
2023-02-23T08:51:04.462Z,30.60
2023-02-23T08:53:35.722Z,30.60
2023-02-23T08:56:08.832Z,30.60
2023-02-23T08:58:40.246Z,30.60
2023-02-23T09:01:13.833Z,30.60
2023-02-23T09:03:45.272Z,30.50
2023-02-23T09:06:18.975Z,30.50
2023-02-23T09:08:50.746Z,30.60
2023-02-23T09:11:22.304Z,30.60
2023-02-23T09:13:53.676Z,30.60
2023-02-23T09:16:25.108Z,30.60
2023-02-23T09:18:57.044Z,30.60
2023-02-23T09:21:31.488Z,30.60
2023-02-23T09:24:03.000Z,30.60
2023-02-23T09:26:46.020Z,30.60
2023-02-23T09:29:17.944Z,30.50
2023-02-23T09:31:49.693Z,30.50
2023-02-23T09:34:21.386Z,30.50
2023-02-23T09:36:53.283Z,30.40
2023-02-23T09:39:37.218Z,30.40
2023-02-23T09:42:14.688Z,30.40
2023-02-23T09:45:07.368Z,30.30
2023-02-23T09:47:53.336Z,30.30
2023-02-23T09:50:27.294Z,30.30
2023-02-23T09:53:06.248Z,30.30
2023-02-23T09:55:37.911Z,30.30
2023-02-23T09:58:14.756Z,30.20
2023-02-23T10:00:48.359Z,30.20
2023-02-23T10:03:37.634Z,30.20
2023-02-23T10:06:11.112Z,30.10
2023-02-23T10:09:11.158Z,30.10
2023-02-23T10:12:04.496Z,30.10
2023-02-23T10:14:54.819Z,30.10
2023-02-23T10:17:29.110Z,30.00
2023-02-23T10:20:09.162Z,30.00
2023-02-23T10:22:42.551Z,30.00
2023-02-23T10:25:27.160Z,29.90
2023-02-23T10:28:00.053Z,29.90
2023-02-23T10:30:37.708Z,29.80
2023-02-23T10:33:20.348Z,29.80
2023-02-23T10:35:54.048Z,29.80
2023-02-23T10:41:00.594Z,29.70
2023-02-23T10:43:31.554Z,29.70
2023-02-23T10:46:03.540Z,29.70
2023-02-23T10:48:44.371Z,29.70
2023-02-23T10:51:26.320Z,29.70
2023-02-23T10:53:57.308Z,29.70
2023-02-23T10:56:30.110Z,29.60
2023-02-23T10:59:02.315Z,29.60
2023-02-23T11:01:55.466Z,29.60
2023-02-23T11:04:35.926Z,29.60
2023-02-23T11:07:13.301Z,29.50
2023-02-23T11:09:47.788Z,29.50
2023-02-23T11:12:30.259Z,29.50
2023-02-23T11:15:06.473Z,29.50
2023-02-23T11:17:41.126Z,29.40
2023-02-23T11:20:37.236Z,29.40
2023-02-23T11:23:14.948Z,29.40
2023-02-23T11:25:50.297Z,29.40
2023-02-23T11:28:33.131Z,29.30
2023-02-23T11:31:09.336Z,29.30
2023-02-23T11:33:43.943Z,29.30
2023-02-23T11:36:20.109Z,29.30
2023-02-23T11:38:49.811Z,29.30
2023-02-23T11:41:23.593Z,29.20
2023-02-23T11:43:55.805Z,29.20
2023-02-23T11:46:26.270Z,29.20
2023-02-23T11:48:57.454Z,29.10
2023-02-23T11:51:28.513Z,29.10
2023-02-23T11:53:58.684Z,29.10
2023-02-23T11:56:29.772Z,29.10
2023-02-23T11:59:02.454Z,29.00
2023-02-23T12:01:51.140Z,29.00
2023-02-23T12:04:34.449Z,29.00
2023-02-23T12:07:05.356Z,29.00
2023-02-23T12:09:36.679Z,28.90
2023-02-23T12:12:07.869Z,29.00
2023-02-23T12:14:42.000Z,28.90
2023-02-23T12:17:18.932Z,28.90
2023-02-23T12:19:56.853Z,28.90
2023-02-23T12:23:10.717Z,28.90
2023-02-23T12:25:08.593Z,28.80
2023-02-23T12:30:39.182Z,28.80
2023-02-23T12:33:32.092Z,28.80
2023-02-23T12:36:15.218Z,28.80
2023-02-23T12:39:01.095Z,28.80
2023-02-23T12:41:35.117Z,28.70
2023-02-23T12:44:08.771Z,28.70
2023-02-23T12:46:43.908Z,28.60
2023-02-23T12:49:31.504Z,28.70
2023-02-23T12:52:05.961Z,28.70
2023-02-23T12:54:35.664Z,28.60
2023-02-23T12:57:09.440Z,28.60
2023-02-23T12:59:46.844Z,28.60
2023-02-23T13:02:25.203Z,28.60
2023-02-23T13:04:59.092Z,28.50
2023-02-23T13:07:39.388Z,28.50
2023-02-23T13:10:21.512Z,28.50
2023-02-23T13:13:09.063Z,28.50
2023-02-23T13:15:46.101Z,28.50
2023-02-23T13:18:19.453Z,28.40
2023-02-23T13:20:59.188Z,28.40
2023-02-23T13:23:36.239Z,28.40
2023-02-23T13:26:19.671Z,28.30
2023-02-23T13:28:51.033Z,28.30
2023-02-23T13:31:25.386Z,28.30
2023-02-23T13:33:58.474Z,28.30
2023-02-23T13:36:33.111Z,28.30
2023-02-23T13:39:18.517Z,28.20
2023-02-23T13:41:46.617Z,28.20
2023-02-23T13:44:32.113Z,28.20
2023-02-23T13:47:15.762Z,28.20
2023-02-23T13:49:51.010Z,28.10
2023-02-23T13:52:38.714Z,28.20
2023-02-23T13:55:14.658Z,28.10
2023-02-23T13:57:47.049Z,28.10
2023-02-23T14:00:25.618Z,28.10
2023-02-23T14:02:59.165Z,28.10
2023-02-23T14:05:56.750Z,28.00
2023-02-23T14:08:33.669Z,28.10
2023-02-23T14:11:03.445Z,28.00
2023-02-23T14:13:34.197Z,28.00
2023-02-23T14:16:11.116Z,28.00
2023-02-23T14:18:55.495Z,28.00
2023-02-23T14:21:29.651Z,28.10
2023-02-23T14:24:13.085Z,28.60
2023-02-23T14:26:42.219Z,28.10
2023-02-23T14:29:19.498Z,28.00
2023-02-23T14:31:56.989Z,28.00
2023-02-23T14:34:28.166Z,27.90
2023-02-23T14:37:07.276Z,28.00
2023-02-23T14:39:51.501Z,27.90
2023-02-23T14:45:40.132Z,27.80
2023-02-23T14:48:20.122Z,27.80
2023-02-23T14:51:16.391Z,27.70
2023-02-23T14:53:38.724Z,27.70
2023-02-23T14:56:43.789Z,27.60
2023-02-23T14:59:22.658Z,27.60
2023-02-23T15:01:53.420Z,27.50
2023-02-23T15:04:41.883Z,27.50
2023-02-23T15:07:12.155Z,27.40
2023-02-23T15:13:01.576Z,27.30
2023-02-23T15:15:37.633Z,27.20
2023-02-23T15:18:07.451Z,27.20
2023-02-23T15:20:38.360Z,27.10
2023-02-23T15:23:09.414Z,27.10
2023-02-23T15:25:44.638Z,27.10
2023-02-23T15:28:31.424Z,27.10
2023-02-23T15:31:05.421Z,27.00
2023-02-23T15:33:43.164Z,27.00
2023-02-23T15:36:21.307Z,27.00
2023-02-23T15:38:52.292Z,27.00
2023-02-23T15:41:24.200Z,27.00
2023-02-23T15:44:07.510Z,26.90
2023-02-23T15:46:37.847Z,26.90
2023-02-23T15:49:10.843Z,26.90
2023-02-23T15:51:48.134Z,26.90
2023-02-23T15:54:22.087Z,26.80
2023-02-23T15:56:54.067Z,26.80
2023-02-23T15:59:27.577Z,26.80
2023-02-23T16:02:17.866Z,26.80
2023-02-23T16:04:58.610Z,26.80
2023-02-23T16:08:00.796Z,26.80
2023-02-23T16:10:14.820Z,26.80
2023-02-23T16:12:44.604Z,26.80
2023-02-23T16:15:25.489Z,26.80
2023-02-23T16:17:57.135Z,26.80
2023-02-23T16:23:25.189Z,26.70
2023-02-23T16:25:55.705Z,26.70
2023-02-23T16:28:32.985Z,26.60
2023-02-23T16:31:28.411Z,26.60
2023-02-23T16:33:56.597Z,26.50
2023-02-23T16:36:27.396Z,26.50
2023-02-23T16:39:07.274Z,26.50
2023-02-23T16:41:39.735Z,26.40
2023-02-23T16:44:13.222Z,26.40
2023-02-23T16:47:01.266Z,26.40
2023-02-23T16:49:31.212Z,26.40
2023-02-23T16:52:10.620Z,26.30
2023-02-23T16:54:40.459Z,26.30
2023-02-23T16:57:11.392Z,26.30
2023-02-23T16:59:41.468Z,26.30
2023-02-23T17:02:17.732Z,26.30
2023-02-23T17:04:49.765Z,26.30
2023-02-23T17:07:23.859Z,26.30
2023-02-23T17:09:54.340Z,26.30
2023-02-23T17:12:26.151Z,26.20
2023-02-23T17:14:55.791Z,26.20
2023-02-23T17:17:25.559Z,26.20
2023-02-23T17:19:55.391Z,26.20
2023-02-23T17:22:24.987Z,26.10
2023-02-23T17:24:54.740Z,26.10
2023-02-23T17:27:24.416Z,26.00
2023-02-23T17:29:54.075Z,26.00
2023-02-23T17:32:25.344Z,26.00
2023-02-23T17:34:56.529Z,26.00
2023-02-23T17:37:26.143Z,26.10
2023-02-23T17:39:58.797Z,26.10
2023-02-23T17:42:35.980Z,26.00
2023-02-23T17:45:06.955Z,25.90
2023-02-23T17:47:37.030Z,25.90
2023-02-23T17:50:11.356Z,25.80
2023-02-23T17:52:47.283Z,25.80
2023-02-23T17:55:17.287Z,25.80
2023-02-23T17:57:47.072Z,25.70
2023-02-23T18:00:17.623Z,25.60
2023-02-23T18:02:47.591Z,25.50
2023-02-23T18:05:17.393Z,25.50
2023-02-23T18:07:49.666Z,25.50
2023-02-23T18:10:23.549Z,25.60
2023-02-23T18:12:53.735Z,25.60
2023-02-23T18:15:23.413Z,25.60
2023-02-23T18:17:54.372Z,25.60
2023-02-23T18:20:24.182Z,25.60
2023-02-23T18:22:54.910Z,25.60
2023-02-23T18:25:26.342Z,25.60
2023-02-23T18:27:59.563Z,25.50
2023-02-23T18:30:29.302Z,25.50
2023-02-23T18:33:04.585Z,25.40
2023-02-23T18:35:37.416Z,25.40
2023-02-23T18:38:10.272Z,25.30
2023-02-23T18:40:39.330Z,25.30
2023-02-23T18:43:09.165Z,25.30
2023-02-23T18:45:38.848Z,25.20
2023-02-23T18:48:09.931Z,25.20
2023-02-23T18:50:45.700Z,25.20
2023-02-23T18:53:15.381Z,25.10
2023-02-23T18:55:45.675Z,25.10
2023-02-23T18:58:15.269Z,25.10
2023-02-23T19:00:45.401Z,25.00
2023-02-23T19:03:15.190Z,25.00
2023-02-23T19:05:49.280Z,25.00
2023-02-23T19:08:18.922Z,25.00
2023-02-23T19:10:48.742Z,25.00
2023-02-23T19:13:19.809Z,25.00
2023-02-23T19:15:50.695Z,25.00
2023-02-23T19:18:20.416Z,25.00
2023-02-23T19:20:51.460Z,25.00
2023-02-23T19:23:21.387Z,25.00
2023-02-23T19:25:51.674Z,25.00
2023-02-23T19:28:22.211Z,25.00
2023-02-23T19:30:51.841Z,25.00
2023-02-23T19:33:21.650Z,25.00
2023-02-23T19:35:51.469Z,25.10
2023-02-23T19:38:21.177Z,25.10
2023-02-23T19:40:50.924Z,25.10
2023-02-23T19:43:20.505Z,25.10
2023-02-23T19:45:50.112Z,25.20
2023-02-23T19:48:19.974Z,25.20
2023-02-23T19:50:50.450Z,25.20
2023-02-23T19:53:20.138Z,25.10
2023-02-23T19:55:49.751Z,25.20
2023-02-23T19:58:19.759Z,25.10
2023-02-23T20:00:49.747Z,25.10
2023-02-23T20:03:20.993Z,25.10
2023-02-23T20:05:50.750Z,25.10
2023-02-23T20:08:20.450Z,25.00
2023-02-23T20:10:50.118Z,25.00
2023-02-23T20:13:19.807Z,25.00
2023-02-23T20:15:49.374Z,25.00
2023-02-23T20:18:20.508Z,25.00
2023-02-23T20:20:50.144Z,25.00
2023-02-23T20:23:19.827Z,25.10
2023-02-23T20:25:49.575Z,25.10
2023-02-23T20:28:19.300Z,25.10
2023-02-23T20:30:49.120Z,25.10
2023-02-23T20:33:18.920Z,25.10
2023-02-23T20:35:48.510Z,25.10
2023-02-23T20:38:18.255Z,25.10
2023-02-23T20:40:47.869Z,25.10
2023-02-23T20:43:17.466Z,25.10
2023-02-23T20:45:47.186Z,25.10
2023-02-23T20:48:16.724Z,25.20
2023-02-23T20:50:46.348Z,25.10
2023-02-23T20:53:15.941Z,25.10
2023-02-23T20:55:45.526Z,25.10
2023-02-23T20:58:15.295Z,25.10
2023-02-23T21:00:45.005Z,25.10
2023-02-23T21:03:14.709Z,25.00
2023-02-23T21:05:44.339Z,25.00
2023-02-23T21:08:14.512Z,25.00
2023-02-23T21:10:44.287Z,24.90
2023-02-23T21:13:14.026Z,24.90
2023-02-23T21:15:44.569Z,24.80
2023-02-23T21:18:14.470Z,24.80
2023-02-23T21:20:44.150Z,24.80
2023-02-23T21:23:13.862Z,24.80
2023-02-23T21:25:43.984Z,24.70
2023-02-23T21:28:13.570Z,24.70
2023-02-23T21:30:43.340Z,24.70
2023-02-23T21:33:13.234Z,24.70
2023-02-23T21:35:42.861Z,24.60
2023-02-23T21:38:12.710Z,24.60
2023-02-23T21:40:43.302Z,24.60
2023-02-23T21:43:14.108Z,24.50
2023-02-23T21:45:45.131Z,24.40
2023-02-23T21:48:15.371Z,24.40
2023-02-23T21:50:45.049Z,24.30
2023-02-23T21:53:14.637Z,24.40
2023-02-23T21:55:44.500Z,24.30
2023-02-23T21:58:16.427Z,24.30
2023-02-23T22:00:47.196Z,24.20
2023-02-23T22:03:16.942Z,24.20
2023-02-23T22:05:46.715Z,24.20
2023-02-23T22:08:18.658Z,24.10
2023-02-23T22:10:48.242Z,24.10
2023-02-23T22:13:17.937Z,24.20
2023-02-23T22:15:47.652Z,24.10
2023-02-23T22:18:17.268Z,24.10
2023-02-23T22:20:48.304Z,24.10
2023-02-23T22:23:18.067Z,24.10
2023-02-23T22:25:48.062Z,24.10
2023-02-23T22:28:17.964Z,24.10
2023-02-23T22:30:49.020Z,24.00
2023-02-23T22:33:20.481Z,24.00
2023-02-23T22:35:50.140Z,24.00
2023-02-23T22:38:21.094Z,23.90
2023-02-23T22:40:50.699Z,23.90
2023-02-23T22:43:21.759Z,23.90
2023-02-23T22:45:52.674Z,23.80
2023-02-23T22:48:23.753Z,23.80
2023-02-23T22:50:53.351Z,23.70
2023-02-23T22:53:23.064Z,23.70
2023-02-23T22:55:56.482Z,23.70
2023-02-23T22:58:28.755Z,23.70
2023-02-23T23:01:07.853Z,23.70
2023-02-23T23:03:38.249Z,23.60
2023-02-23T23:06:09.100Z,23.60
2023-02-23T23:08:39.894Z,23.50
2023-02-23T23:11:10.939Z,23.50
2023-02-23T23:13:49.544Z,23.50
2023-02-23T23:16:31.708Z,23.40
2023-02-23T23:18:55.613Z,23.40
2023-02-23T23:21:27.413Z,23.40
2023-02-23T23:23:58.318Z,23.40
2023-02-23T23:26:29.052Z,23.40
2023-02-23T23:28:59.824Z,23.40
2023-02-23T23:31:30.771Z,23.30
2023-02-23T23:34:01.662Z,23.30
2023-02-23T23:36:33.956Z,23.30
2023-02-23T23:39:05.128Z,23.30
2023-02-23T23:41:36.301Z,23.30
2023-02-23T23:44:13.059Z,23.20
2023-02-23T23:46:44.070Z,23.30
2023-02-23T23:49:16.443Z,23.20
2023-02-23T23:51:47.422Z,23.20
2023-02-23T23:54:18.886Z,23.20
2023-02-23T23:56:48.712Z,23.20
2023-02-23T23:59:21.361Z,23.20
